sensor_id;sensor_type;location;lat;lon;timestamp;P1;durP1;ratioP1;P2;durP2;ratioP2
64085;SDS011;50333;47.436;21.390;2022-12-07T00:01:36;10.02;;;7.25;;
64085;SDS011;50333;47.436;21.390;2022-12-07T00:04:07;8.98;;;6.97;;
64085;SDS011;50333;47.436;21.390;2022-12-07T00:06:38;9.65;;;7.45;;
64085;SDS011;50333;47.436;21.390;2022-12-07T00:09:12;8.75;;;7.00;;
64085;SDS011;50333;47.436;21.390;2022-12-07T00:11:41;8.07;;;6.87;;
64085;SDS011;50333;47.436;21.390;2022-12-07T00:14:13;10.20;;;7.62;;
64085;SDS011;50333;47.436;21.390;2022-12-07T00:16:43;10.38;;;6.85;;
64085;SDS011;50333;47.436;21.390;2022-12-07T00:19:12;9.82;;;7.50;;
64085;SDS011;50333;47.436;21.390;2022-12-07T00:21:40;10.52;;;7.43;;
64085;SDS011;50333;47.436;21.390;2022-12-07T00:24:09;9.30;;;7.10;;
64085;SDS011;50333;47.436;21.390;2022-12-07T00:26:38;9.75;;;7.53;;
64085;SDS011;50333;47.436;21.390;2022-12-07T00:29:20;8.90;;;7.00;;
64085;SDS011;50333;47.436;21.390;2022-12-07T00:31:51;9.10;;;7.37;;
64085;SDS011;50333;47.436;21.390;2022-12-07T00:34:19;8.18;;;7.10;;
64085;SDS011;50333;47.436;21.390;2022-12-07T00:36:48;9.75;;;7.45;;
64085;SDS011;50333;47.436;21.390;2022-12-07T00:39:16;8.90;;;7.45;;
64085;SDS011;50333;47.436;21.390;2022-12-07T00:41:44;9.27;;;7.30;;
64085;SDS011;50333;47.436;21.390;2022-12-07T00:44:11;9.18;;;7.07;;
64085;SDS011;50333;47.436;21.390;2022-12-07T00:46:40;10.77;;;8.07;;
64085;SDS011;50333;47.436;21.390;2022-12-07T00:49:07;12.30;;;8.48;;
64085;SDS011;50333;47.436;21.390;2022-12-07T00:51:35;14.52;;;7.85;;
64085;SDS011;50333;47.436;21.390;2022-12-07T00:54:03;10.85;;;7.97;;
64085;SDS011;50333;47.436;21.390;2022-12-07T00:56:31;10.90;;;8.35;;
64085;SDS011;50333;47.436;21.390;2022-12-07T00:59:02;16.58;;;8.00;;
64085;SDS011;50333;47.436;21.390;2022-12-07T01:01:32;11.35;;;8.48;;
64085;SDS011;50333;47.436;21.390;2022-12-07T01:04:02;9.75;;;7.82;;
64085;SDS011;50333;47.436;21.390;2022-12-07T01:06:30;11.68;;;8.68;;
64085;SDS011;50333;47.436;21.390;2022-12-07T01:08:58;12.00;;;8.57;;
64085;SDS011;50333;47.436;21.390;2022-12-07T01:11:27;10.43;;;7.85;;
64085;SDS011;50333;47.436;21.390;2022-12-07T01:13:57;10.52;;;8.10;;
64085;SDS011;50333;47.436;21.390;2022-12-07T01:16:27;9.93;;;8.05;;
64085;SDS011;50333;47.436;21.390;2022-12-07T01:18:57;10.60;;;7.93;;
64085;SDS011;50333;47.436;21.390;2022-12-07T01:21:29;10.25;;;7.78;;
64085;SDS011;50333;47.436;21.390;2022-12-07T01:24:03;9.18;;;7.32;;
64085;SDS011;50333;47.436;21.390;2022-12-07T01:26:32;11.55;;;8.23;;
64085;SDS011;50333;47.436;21.390;2022-12-07T01:29:00;8.93;;;7.45;;
64085;SDS011;50333;47.436;21.390;2022-12-07T01:31:28;9.85;;;7.47;;
64085;SDS011;50333;47.436;21.390;2022-12-07T01:33:57;10.60;;;8.05;;
64085;SDS011;50333;47.436;21.390;2022-12-07T01:36:35;12.20;;;8.15;;
64085;SDS011;50333;47.436;21.390;2022-12-07T01:39:05;10.18;;;7.35;;
64085;SDS011;50333;47.436;21.390;2022-12-07T01:41:35;10.52;;;7.85;;
64085;SDS011;50333;47.436;21.390;2022-12-07T01:44:10;12.00;;;7.50;;
64085;SDS011;50333;47.436;21.390;2022-12-07T01:49:42;10.35;;;7.43;;
64085;SDS011;50333;47.436;21.390;2022-12-07T01:52:20;12.65;;;8.07;;
64085;SDS011;50333;47.436;21.390;2022-12-07T01:54:53;9.93;;;7.47;;
64085;SDS011;50333;47.436;21.390;2022-12-07T01:57:24;10.95;;;7.50;;
64085;SDS011;50333;47.436;21.390;2022-12-07T01:59:53;10.73;;;8.05;;
64085;SDS011;50333;47.436;21.390;2022-12-07T02:02:25;10.38;;;7.62;;
64085;SDS011;50333;47.436;21.390;2022-12-07T02:04:59;9.82;;;8.02;;
64085;SDS011;50333;47.436;21.390;2022-12-07T02:07:29;13.90;;;7.37;;
64085;SDS011;50333;47.436;21.390;2022-12-07T02:12:45;10.68;;;8.02;;
64085;SDS011;50333;47.436;21.390;2022-12-07T02:15:16;8.98;;;7.70;;
64085;SDS011;50333;47.436;21.390;2022-12-07T02:17:55;11.30;;;8.02;;
64085;SDS011;50333;47.436;21.390;2022-12-07T02:20:33;10.30;;;7.53;;
64085;SDS011;50333;47.436;21.390;2022-12-07T02:31:51;10.20;;;8.20;;
64085;SDS011;50333;47.436;21.390;2022-12-07T02:37:04;10.07;;;7.82;;
64085;SDS011;50333;47.436;21.390;2022-12-07T02:39:48;11.65;;;8.00;;
64085;SDS011;50333;47.436;21.390;2022-12-07T02:42:45;8.55;;;7.43;;
64085;SDS011;50333;47.436;21.390;2022-12-07T02:45:18;10.90;;;8.10;;
64085;SDS011;50333;47.436;21.390;2022-12-07T02:47:51;10.68;;;7.57;;
64085;SDS011;50333;47.436;21.390;2022-12-07T02:50:23;9.55;;;7.53;;
64085;SDS011;50333;47.436;21.390;2022-12-07T02:52:51;9.35;;;7.35;;
64085;SDS011;50333;47.436;21.390;2022-12-07T02:55:19;10.38;;;7.80;;
64085;SDS011;50333;47.436;21.390;2022-12-07T03:00:39;10.05;;;8.07;;
64085;SDS011;50333;47.436;21.390;2022-12-07T03:03:19;10.10;;;7.95;;
64085;SDS011;50333;47.436;21.390;2022-12-07T03:05:51;12.05;;;8.10;;
64085;SDS011;50333;47.436;21.390;2022-12-07T03:11:17;11.73;;;8.80;;
64085;SDS011;50333;47.436;21.390;2022-12-07T03:13:59;10.18;;;7.95;;
64085;SDS011;50333;47.436;21.390;2022-12-07T03:16:40;9.57;;;7.82;;
64085;SDS011;50333;47.436;21.390;2022-12-07T03:19:15;11.23;;;7.78;;
64085;SDS011;50333;47.436;21.390;2022-12-07T03:21:53;9.82;;;7.87;;
64085;SDS011;50333;47.436;21.390;2022-12-07T03:24:26;9.40;;;7.50;;
64085;SDS011;50333;47.436;21.390;2022-12-07T03:27:45;13.07;;;8.57;;
64085;SDS011;50333;47.436;21.390;2022-12-07T03:30:00;10.15;;;8.40;;
64085;SDS011;50333;47.436;21.390;2022-12-07T03:32:36;9.90;;;8.35;;
64085;SDS011;50333;47.436;21.390;2022-12-07T03:35:14;11.30;;;8.38;;
64085;SDS011;50333;47.436;21.390;2022-12-07T03:37:51;10.48;;;8.10;;
64085;SDS011;50333;47.436;21.390;2022-12-07T03:40:35;13.82;;;8.85;;
64085;SDS011;50333;47.436;21.390;2022-12-07T03:43:12;11.38;;;8.20;;
64085;SDS011;50333;47.436;21.390;2022-12-07T03:45:41;10.93;;;8.50;;
64085;SDS011;50333;47.436;21.390;2022-12-07T03:50:48;12.10;;;8.25;;
64085;SDS011;50333;47.436;21.390;2022-12-07T03:56:16;13.80;;;8.23;;
64085;SDS011;50333;47.436;21.390;2022-12-07T03:58:44;9.85;;;7.85;;
64085;SDS011;50333;47.436;21.390;2022-12-07T04:01:12;10.77;;;7.55;;
64085;SDS011;50333;47.436;21.390;2022-12-07T04:03:40;12.13;;;8.40;;
64085;SDS011;50333;47.436;21.390;2022-12-07T04:06:08;10.00;;;7.62;;
64085;SDS011;50333;47.436;21.390;2022-12-07T04:08:35;10.27;;;7.95;;
64085;SDS011;50333;47.436;21.390;2022-12-07T04:11:03;10.45;;;8.18;;
64085;SDS011;50333;47.436;21.390;2022-12-07T04:13:31;10.85;;;7.78;;
64085;SDS011;50333;47.436;21.390;2022-12-07T04:16:19;9.82;;;7.55;;
64085;SDS011;50333;47.436;21.390;2022-12-07T04:18:47;9.52;;;7.53;;
64085;SDS011;50333;47.436;21.390;2022-12-07T04:21:14;11.02;;;8.30;;
64085;SDS011;50333;47.436;21.390;2022-12-07T04:23:42;11.77;;;7.78;;
64085;SDS011;50333;47.436;21.390;2022-12-07T04:26:10;10.35;;;8.70;;
64085;SDS011;50333;47.436;21.390;2022-12-07T04:28:37;9.88;;;8.10;;
64085;SDS011;50333;47.436;21.390;2022-12-07T04:31:05;9.70;;;8.00;;
64085;SDS011;50333;47.436;21.390;2022-12-07T04:33:33;10.15;;;7.85;;
64085;SDS011;50333;47.436;21.390;2022-12-07T04:36:02;13.05;;;8.40;;
64085;SDS011;50333;47.436;21.390;2022-12-07T04:38:30;11.70;;;8.43;;
64085;SDS011;50333;47.436;21.390;2022-12-07T04:40:57;10.35;;;7.50;;
64085;SDS011;50333;47.436;21.390;2022-12-07T04:43:25;10.60;;;8.60;;
64085;SDS011;50333;47.436;21.390;2022-12-07T04:45:53;11.55;;;9.05;;
64085;SDS011;50333;47.436;21.390;2022-12-07T04:48:21;10.20;;;8.10;;
64085;SDS011;50333;47.436;21.390;2022-12-07T04:50:48;9.75;;;8.02;;
64085;SDS011;50333;47.436;21.390;2022-12-07T04:53:19;13.68;;;8.07;;
64085;SDS011;50333;47.436;21.390;2022-12-07T04:55:47;9.68;;;8.10;;
64085;SDS011;50333;47.436;21.390;2022-12-07T04:58:14;9.73;;;7.90;;
64085;SDS011;50333;47.436;21.390;2022-12-07T05:00:42;10.95;;;8.32;;
64085;SDS011;50333;47.436;21.390;2022-12-07T05:03:10;10.43;;;7.97;;
64085;SDS011;50333;47.436;21.390;2022-12-07T05:05:39;13.05;;;9.20;;
64085;SDS011;50333;47.436;21.390;2022-12-07T05:08:09;11.85;;;8.90;;
64085;SDS011;50333;47.436;21.390;2022-12-07T05:10:36;12.30;;;8.73;;
64085;SDS011;50333;47.436;21.390;2022-12-07T05:13:04;12.45;;;8.77;;
64085;SDS011;50333;47.436;21.390;2022-12-07T05:15:32;12.63;;;8.85;;
64085;SDS011;50333;47.436;21.390;2022-12-07T05:18:00;11.12;;;8.70;;
64085;SDS011;50333;47.436;21.390;2022-12-07T05:20:28;14.73;;;8.93;;
64085;SDS011;50333;47.436;21.390;2022-12-07T05:22:56;11.95;;;9.20;;
64085;SDS011;50333;47.436;21.390;2022-12-07T05:25:25;11.25;;;8.93;;
64085;SDS011;50333;47.436;21.390;2022-12-07T05:27:54;13.15;;;9.15;;
64085;SDS011;50333;47.436;21.390;2022-12-07T05:30:24;11.63;;;9.13;;
64085;SDS011;50333;47.436;21.390;2022-12-07T05:32:52;10.30;;;8.75;;
64085;SDS011;50333;47.436;21.390;2022-12-07T05:35:20;13.98;;;9.15;;
64085;SDS011;50333;47.436;21.390;2022-12-07T05:37:48;9.15;;;8.05;;
64085;SDS011;50333;47.436;21.390;2022-12-07T05:40:16;12.15;;;8.95;;
64085;SDS011;50333;47.436;21.390;2022-12-07T05:42:44;10.32;;;9.20;;
64085;SDS011;50333;47.436;21.390;2022-12-07T05:45:12;12.77;;;9.60;;
64085;SDS011;50333;47.436;21.390;2022-12-07T05:47:40;12.00;;;10.05;;
64085;SDS011;50333;47.436;21.390;2022-12-07T05:50:08;11.30;;;9.55;;
64085;SDS011;50333;47.436;21.390;2022-12-07T05:52:36;19.30;;;12.27;;
64085;SDS011;50333;47.436;21.390;2022-12-07T05:55:03;49.08;;;21.60;;
64085;SDS011;50333;47.436;21.390;2022-12-07T05:57:31;13.60;;;9.95;;
64085;SDS011;50333;47.436;21.390;2022-12-07T05:59:59;13.05;;;10.07;;
64085;SDS011;50333;47.436;21.390;2022-12-07T06:02:27;13.45;;;10.20;;
64085;SDS011;50333;47.436;21.390;2022-12-07T06:04:55;14.10;;;10.75;;
64085;SDS011;50333;47.436;21.390;2022-12-07T06:07:23;13.93;;;10.40;;
64085;SDS011;50333;47.436;21.390;2022-12-07T06:09:51;13.40;;;10.05;;
64085;SDS011;50333;47.436;21.390;2022-12-07T06:12:19;13.15;;;10.20;;
64085;SDS011;50333;47.436;21.390;2022-12-07T06:15:02;13.38;;;10.63;;
64085;SDS011;50333;47.436;21.390;2022-12-07T06:17:30;13.52;;;10.65;;
64085;SDS011;50333;47.436;21.390;2022-12-07T06:19:58;15.65;;;10.93;;
64085;SDS011;50333;47.436;21.390;2022-12-07T06:22:27;12.85;;;9.98;;
64085;SDS011;50333;47.436;21.390;2022-12-07T06:24:55;13.70;;;10.30;;
64085;SDS011;50333;47.436;21.390;2022-12-07T06:27:22;15.98;;;10.65;;
64085;SDS011;50333;47.436;21.390;2022-12-07T06:29:50;12.75;;;10.48;;
64085;SDS011;50333;47.436;21.390;2022-12-07T06:32:18;13.75;;;10.63;;
64085;SDS011;50333;47.436;21.390;2022-12-07T06:34:45;15.60;;;10.45;;
64085;SDS011;50333;47.436;21.390;2022-12-07T06:37:14;16.50;;;11.07;;
64085;SDS011;50333;47.436;21.390;2022-12-07T06:39:42;13.43;;;10.52;;
64085;SDS011;50333;47.436;21.390;2022-12-07T06:42:10;14.52;;;10.77;;
64085;SDS011;50333;47.436;21.390;2022-12-07T06:44:37;14.13;;;9.77;;
64085;SDS011;50333;47.436;21.390;2022-12-07T06:47:05;12.88;;;10.48;;
64085;SDS011;50333;47.436;21.390;2022-12-07T06:49:55;17.30;;;10.63;;
64085;SDS011;50333;47.436;21.390;2022-12-07T06:52:22;13.82;;;11.07;;
64085;SDS011;50333;47.436;21.390;2022-12-07T06:54:50;13.85;;;10.20;;
64085;SDS011;50333;47.436;21.390;2022-12-07T06:57:18;13.98;;;11.18;;
64085;SDS011;50333;47.436;21.390;2022-12-07T06:59:48;16.20;;;11.73;;
64085;SDS011;50333;47.436;21.390;2022-12-07T07:02:16;16.70;;;11.27;;
64085;SDS011;50333;47.436;21.390;2022-12-07T07:04:44;13.77;;;11.23;;
64085;SDS011;50333;47.436;21.390;2022-12-07T07:07:12;17.33;;;12.93;;
64085;SDS011;50333;47.436;21.390;2022-12-07T07:09:39;17.02;;;11.80;;
64085;SDS011;50333;47.436;21.390;2022-12-07T07:12:07;15.43;;;11.55;;
64085;SDS011;50333;47.436;21.390;2022-12-07T07:14:35;16.77;;;12.30;;
64085;SDS011;50333;47.436;21.390;2022-12-07T07:17:03;20.50;;;11.50;;
64085;SDS011;50333;47.436;21.390;2022-12-07T07:19:31;17.40;;;11.85;;
64085;SDS011;50333;47.436;21.390;2022-12-07T07:21:59;19.48;;;13.90;;
64085;SDS011;50333;47.436;21.390;2022-12-07T07:24:26;20.83;;;11.38;;
64085;SDS011;50333;47.436;21.390;2022-12-07T07:26:54;25.30;;;11.57;;
64085;SDS011;50333;47.436;21.390;2022-12-07T07:29:22;16.52;;;11.82;;
64085;SDS011;50333;47.436;21.390;2022-12-07T07:31:50;16.33;;;11.45;;
64085;SDS011;50333;47.436;21.390;2022-12-07T07:34:19;26.55;;;12.32;;
64085;SDS011;50333;47.436;21.390;2022-12-07T07:36:47;20.62;;;12.45;;
64085;SDS011;50333;47.436;21.390;2022-12-07T07:39:15;15.65;;;10.60;;
64085;SDS011;50333;47.436;21.390;2022-12-07T07:41:43;14.68;;;10.10;;
64085;SDS011;50333;47.436;21.390;2022-12-07T07:44:12;14.30;;;9.70;;
64085;SDS011;50333;47.436;21.390;2022-12-07T07:46:40;15.50;;;10.07;;
64085;SDS011;50333;47.436;21.390;2022-12-07T07:49:08;12.23;;;9.93;;
64085;SDS011;50333;47.436;21.390;2022-12-07T07:51:38;14.07;;;9.45;;
64085;SDS011;50333;47.436;21.390;2022-12-07T07:54:05;14.68;;;9.35;;
64085;SDS011;50333;47.436;21.390;2022-12-07T07:56:33;11.85;;;9.02;;
64085;SDS011;50333;47.436;21.390;2022-12-07T07:59:01;11.73;;;9.38;;
64085;SDS011;50333;47.436;21.390;2022-12-07T08:01:28;13.40;;;8.95;;
64085;SDS011;50333;47.436;21.390;2022-12-07T08:03:56;13.52;;;9.43;;
64085;SDS011;50333;47.436;21.390;2022-12-07T08:06:24;12.45;;;8.65;;
64085;SDS011;50333;47.436;21.390;2022-12-07T08:08:58;11.23;;;9.38;;
64085;SDS011;50333;47.436;21.390;2022-12-07T08:11:26;12.37;;;9.18;;
64085;SDS011;50333;47.436;21.390;2022-12-07T08:13:53;11.63;;;8.93;;
64085;SDS011;50333;47.436;21.390;2022-12-07T08:16:21;14.23;;;9.40;;
64085;SDS011;50333;47.436;21.390;2022-12-07T08:18:49;14.10;;;9.35;;
64085;SDS011;50333;47.436;21.390;2022-12-07T08:21:17;18.48;;;9.40;;
64085;SDS011;50333;47.436;21.390;2022-12-07T08:23:45;13.15;;;9.35;;
64085;SDS011;50333;47.436;21.390;2022-12-07T08:26:13;11.07;;;8.70;;
64085;SDS011;50333;47.436;21.390;2022-12-07T08:28:42;13.38;;;9.55;;
64085;SDS011;50333;47.436;21.390;2022-12-07T08:31:13;12.20;;;9.05;;
64085;SDS011;50333;47.436;21.390;2022-12-07T08:36:15;12.18;;;9.07;;
64085;SDS011;50333;47.436;21.390;2022-12-07T08:38:43;12.13;;;8.30;;
64085;SDS011;50333;47.436;21.390;2022-12-07T08:41:31;11.57;;;9.10;;
64085;SDS011;50333;47.436;21.390;2022-12-07T08:43:59;14.63;;;9.85;;
64085;SDS011;50333;47.436;21.390;2022-12-07T08:49:18;11.55;;;8.57;;
64085;SDS011;50333;47.436;21.390;2022-12-07T08:51:50;16.90;;;11.60;;
64085;SDS011;50333;47.436;21.390;2022-12-07T08:54:22;14.43;;;10.27;;
64085;SDS011;50333;47.436;21.390;2022-12-07T08:56:50;13.70;;;9.95;;
64085;SDS011;50333;47.436;21.390;2022-12-07T08:59:26;15.20;;;10.27;;
64085;SDS011;50333;47.436;21.390;2022-12-07T09:01:55;16.05;;;11.50;;
64085;SDS011;50333;47.436;21.390;2022-12-07T09:04:22;11.07;;;9.25;;
64085;SDS011;50333;47.436;21.390;2022-12-07T09:06:50;9.82;;;7.97;;
64085;SDS011;50333;47.436;21.390;2022-12-07T09:09:18;10.93;;;8.90;;
64085;SDS011;50333;47.436;21.390;2022-12-07T09:11:46;10.25;;;8.02;;
64085;SDS011;50333;47.436;21.390;2022-12-07T09:14:14;10.52;;;8.85;;
64085;SDS011;50333;47.436;21.390;2022-12-07T09:16:41;12.25;;;9.15;;
64085;SDS011;50333;47.436;21.390;2022-12-07T09:19:09;12.40;;;10.23;;
64085;SDS011;50333;47.436;21.390;2022-12-07T09:21:37;13.82;;;10.10;;
64085;SDS011;50333;47.436;21.390;2022-12-07T09:24:05;13.00;;;10.23;;
64085;SDS011;50333;47.436;21.390;2022-12-07T09:26:33;12.15;;;8.93;;
64085;SDS011;50333;47.436;21.390;2022-12-07T09:29:03;11.12;;;8.77;;
64085;SDS011;50333;47.436;21.390;2022-12-07T09:31:31;11.68;;;8.77;;
64085;SDS011;50333;47.436;21.390;2022-12-07T09:33:59;15.55;;;9.75;;
64085;SDS011;50333;47.436;21.390;2022-12-07T09:36:28;10.68;;;9.23;;
64085;SDS011;50333;47.436;21.390;2022-12-07T09:38:57;12.98;;;9.40;;
64085;SDS011;50333;47.436;21.390;2022-12-07T09:41:25;10.25;;;8.30;;
64085;SDS011;50333;47.436;21.390;2022-12-07T09:44:07;10.70;;;9.05;;
64085;SDS011;50333;47.436;21.390;2022-12-07T09:46:42;18.70;;;12.65;;
64085;SDS011;50333;47.436;21.390;2022-12-07T09:49:21;13.98;;;8.50;;
64085;SDS011;50333;47.436;21.390;2022-12-07T09:52:01;9.52;;;8.38;;
64085;SDS011;50333;47.436;21.390;2022-12-07T09:54:29;10.98;;;8.70;;
64085;SDS011;50333;47.436;21.390;2022-12-07T09:56:58;11.20;;;9.00;;
64085;SDS011;50333;47.436;21.390;2022-12-07T09:59:26;11.18;;;8.25;;
64085;SDS011;50333;47.436;21.390;2022-12-07T10:05:00;10.13;;;7.90;;
64085;SDS011;50333;47.436;21.390;2022-12-07T10:07:29;10.75;;;7.87;;
64085;SDS011;50333;47.436;21.390;2022-12-07T10:09:57;8.90;;;7.40;;
64085;SDS011;50333;47.436;21.390;2022-12-07T10:12:27;10.15;;;8.48;;
64085;SDS011;50333;47.436;21.390;2022-12-07T10:15:02;10.52;;;8.40;;
64085;SDS011;50333;47.436;21.390;2022-12-07T10:17:36;10.65;;;8.10;;
64085;SDS011;50333;47.436;21.390;2022-12-07T10:22:52;13.68;;;10.23;;
64085;SDS011;50333;47.436;21.390;2022-12-07T10:25:22;14.05;;;9.57;;
64085;SDS011;50333;47.436;21.390;2022-12-07T10:27:58;10.73;;;9.40;;
64085;SDS011;50333;47.436;21.390;2022-12-07T10:30:29;12.13;;;8.77;;
64085;SDS011;50333;47.436;21.390;2022-12-07T10:32:59;11.02;;;8.20;;
64085;SDS011;50333;47.436;21.390;2022-12-07T10:35:30;10.80;;;8.57;;
64085;SDS011;50333;47.436;21.390;2022-12-07T10:37:58;11.73;;;8.88;;
64085;SDS011;50333;47.436;21.390;2022-12-07T10:43:04;10.73;;;8.60;;
64085;SDS011;50333;47.436;21.390;2022-12-07T10:45:34;11.55;;;8.40;;
64085;SDS011;50333;47.436;21.390;2022-12-07T10:48:26;8.25;;;7.37;;
64085;SDS011;50333;47.436;21.390;2022-12-07T10:51:15;9.15;;;7.82;;
64085;SDS011;50333;47.436;21.390;2022-12-07T11:02:38;10.68;;;8.45;;
64085;SDS011;50333;47.436;21.390;2022-12-07T11:08:38;12.13;;;8.30;;
64085;SDS011;50333;47.436;21.390;2022-12-07T11:11:26;8.65;;;7.53;;
64085;SDS011;50333;47.436;21.390;2022-12-07T11:17:00;10.98;;;7.97;;
64085;SDS011;50333;47.436;21.390;2022-12-07T11:19:43;8.57;;;7.37;;
64085;SDS011;50333;47.436;21.390;2022-12-07T11:27:54;9.30;;;7.00;;
64085;SDS011;50333;47.436;21.390;2022-12-07T11:38:55;11.80;;;7.97;;
64085;SDS011;50333;47.436;21.390;2022-12-07T11:41:31;14.98;;;7.95;;
64085;SDS011;50333;47.436;21.390;2022-12-07T11:44:06;9.90;;;7.70;;
64085;SDS011;50333;47.436;21.390;2022-12-07T11:50:13;9.68;;;8.25;;
64085;SDS011;50333;47.436;21.390;2022-12-07T11:52:55;11.18;;;7.65;;
64085;SDS011;50333;47.436;21.390;2022-12-07T11:55:30;10.30;;;8.15;;
64085;SDS011;50333;47.436;21.390;2022-12-07T12:03:35;10.32;;;8.60;;
64085;SDS011;50333;47.436;21.390;2022-12-07T12:06:07;13.18;;;9.05;;
64085;SDS011;50333;47.436;21.390;2022-12-07T12:08:37;10.65;;;8.68;;
64085;SDS011;50333;47.436;21.390;2022-12-07T12:20:29;11.73;;;9.65;;
64085;SDS011;50333;47.436;21.390;2022-12-07T12:23:01;11.52;;;8.80;;
64085;SDS011;50333;47.436;21.390;2022-12-07T12:25:54;9.68;;;8.68;;
64085;SDS011;50333;47.436;21.390;2022-12-07T12:28:41;11.00;;;8.20;;
64085;SDS011;50333;47.436;21.390;2022-12-07T12:33:51;11.82;;;10.52;;
64085;SDS011;50333;47.436;21.390;2022-12-07T12:36:26;13.85;;;11.55;;
64085;SDS011;50333;47.436;21.390;2022-12-07T12:39:12;12.73;;;9.88;;
64085;SDS011;50333;47.436;21.390;2022-12-07T12:46:53;11.55;;;9.35;;
64085;SDS011;50333;47.436;21.390;2022-12-07T12:55:11;12.18;;;8.73;;
64085;SDS011;50333;47.436;21.390;2022-12-07T12:57:41;10.73;;;8.60;;
64085;SDS011;50333;47.436;21.390;2022-12-07T13:00:15;11.50;;;8.82;;
64085;SDS011;50333;47.436;21.390;2022-12-07T13:02:47;11.82;;;8.20;;
64085;SDS011;50333;47.436;21.390;2022-12-07T13:05:18;9.57;;;8.23;;
64085;SDS011;50333;47.436;21.390;2022-12-07T13:07:53;12.20;;;9.65;;
64085;SDS011;50333;47.436;21.390;2022-12-07T13:28:50;11.05;;;8.00;;
64085;SDS011;50333;47.436;21.390;2022-12-07T13:36:58;11.40;;;8.75;;
64085;SDS011;50333;47.436;21.390;2022-12-07T13:39:29;16.73;;;10.75;;
64085;SDS011;50333;47.436;21.390;2022-12-07T13:41:57;16.70;;;9.25;;
64085;SDS011;50333;47.436;21.390;2022-12-07T13:44:27;12.55;;;8.98;;
64085;SDS011;50333;47.436;21.390;2022-12-07T13:49:37;11.68;;;9.43;;
64085;SDS011;50333;47.436;21.390;2022-12-07T13:52:27;12.70;;;9.50;;
64085;SDS011;50333;47.436;21.390;2022-12-07T13:57:34;16.23;;;11.57;;
64085;SDS011;50333;47.436;21.390;2022-12-07T14:00:04;14.13;;;9.32;;
64085;SDS011;50333;47.436;21.390;2022-12-07T14:02:34;10.70;;;9.07;;
64085;SDS011;50333;47.436;21.390;2022-12-07T14:08:41;21.23;;;15.57;;
64085;SDS011;50333;47.436;21.390;2022-12-07T14:10:39;19.73;;;13.02;;
64085;SDS011;50333;47.436;21.390;2022-12-07T14:15:55;61.95;;;11.65;;
64085;SDS011;50333;47.436;21.390;2022-12-07T14:18:36;52.42;;;10.90;;
64085;SDS011;50333;47.436;21.390;2022-12-07T14:21:27;52.60;;;11.40;;
64085;SDS011;50333;47.436;21.390;2022-12-07T14:24:08;50.47;;;19.90;;
64085;SDS011;50333;47.436;21.390;2022-12-07T14:26:48;22.85;;;16.48;;
64085;SDS011;50333;47.436;21.390;2022-12-07T14:31:58;14.00;;;8.98;;
64085;SDS011;50333;47.436;21.390;2022-12-07T14:34:52;12.68;;;9.10;;
64085;SDS011;50333;47.436;21.390;2022-12-07T14:37:21;12.90;;;9.32;;
64085;SDS011;50333;47.436;21.390;2022-12-07T14:39:49;25.80;;;15.95;;
64085;SDS011;50333;47.436;21.390;2022-12-07T14:42:17;31.42;;;19.05;;
64085;SDS011;50333;47.436;21.390;2022-12-07T14:44:45;19.58;;;14.05;;
64085;SDS011;50333;47.436;21.390;2022-12-07T14:47:13;17.83;;;12.43;;
64085;SDS011;50333;47.436;21.390;2022-12-07T14:50:01;18.48;;;13.43;;
64085;SDS011;50333;47.436;21.390;2022-12-07T14:52:33;16.92;;;12.30;;
64085;SDS011;50333;47.436;21.390;2022-12-07T14:57:51;21.62;;;15.18;;
64085;SDS011;50333;47.436;21.390;2022-12-07T15:00:20;16.95;;;11.57;;
64085;SDS011;50333;47.436;21.390;2022-12-07T15:02:50;18.33;;;12.90;;
64085;SDS011;50333;47.436;21.390;2022-12-07T15:05:18;15.20;;;11.98;;
64085;SDS011;50333;47.436;21.390;2022-12-07T15:07:47;21.73;;;14.60;;
64085;SDS011;50333;47.436;21.390;2022-12-07T15:10:17;17.58;;;12.00;;
64085;SDS011;50333;47.436;21.390;2022-12-07T15:12:50;24.30;;;13.48;;
64085;SDS011;50333;47.436;21.390;2022-12-07T15:15:18;22.73;;;13.82;;
64085;SDS011;50333;47.436;21.390;2022-12-07T15:17:46;14.80;;;10.13;;
64085;SDS011;50333;47.436;21.390;2022-12-07T15:20:14;17.62;;;10.23;;
64085;SDS011;50333;47.436;21.390;2022-12-07T15:22:44;17.60;;;11.80;;
64085;SDS011;50333;47.436;21.390;2022-12-07T15:25:13;17.33;;;10.65;;
64085;SDS011;50333;47.436;21.390;2022-12-07T15:27:40;40.92;;;25.70;;
64085;SDS011;50333;47.436;21.390;2022-12-07T15:30:09;21.35;;;14.15;;
64085;SDS011;50333;47.436;21.390;2022-12-07T15:32:37;18.60;;;11.40;;
64085;SDS011;50333;47.436;21.390;2022-12-07T15:35:04;16.65;;;10.70;;
64085;SDS011;50333;47.436;21.390;2022-12-07T15:37:33;14.87;;;9.50;;
64085;SDS011;50333;47.436;21.390;2022-12-07T15:40:01;19.55;;;10.70;;
64085;SDS011;50333;47.436;21.390;2022-12-07T15:42:37;18.50;;;12.90;;
64085;SDS011;50333;47.436;21.390;2022-12-07T15:45:06;21.98;;;12.75;;
64085;SDS011;50333;47.436;21.390;2022-12-07T15:47:37;67.55;;;43.05;;
64085;SDS011;50333;47.436;21.390;2022-12-07T15:50:26;56.67;;;35.65;;
64085;SDS011;50333;47.436;21.390;2022-12-07T15:52:54;34.42;;;22.23;;
64085;SDS011;50333;47.436;21.390;2022-12-07T15:55:21;25.95;;;18.17;;
64085;SDS011;50333;47.436;21.390;2022-12-07T15:57:49;48.38;;;33.25;;
64085;SDS011;50333;47.436;21.390;2022-12-07T16:00:17;39.47;;;29.10;;
64085;SDS011;50333;47.436;21.390;2022-12-07T16:02:45;22.48;;;15.48;;
64085;SDS011;50333;47.436;21.390;2022-12-07T16:05:13;25.90;;;15.40;;
64085;SDS011;50333;47.436;21.390;2022-12-07T16:07:41;23.83;;;14.85;;
64085;SDS011;50333;47.436;21.390;2022-12-07T16:10:09;44.33;;;27.35;;
64085;SDS011;50333;47.436;21.390;2022-12-07T16:12:37;45.12;;;29.52;;
64085;SDS011;50333;47.436;21.390;2022-12-07T16:15:05;49.42;;;31.35;;
64085;SDS011;50333;47.436;21.390;2022-12-07T16:17:33;41.63;;;27.30;;
64085;SDS011;50333;47.436;21.390;2022-12-07T16:20:01;38.20;;;25.17;;
64085;SDS011;50333;47.436;21.390;2022-12-07T16:22:29;30.25;;;22.40;;
64085;SDS011;50333;47.436;21.390;2022-12-07T16:24:57;22.95;;;16.58;;
64085;SDS011;50333;47.436;21.390;2022-12-07T16:27:24;27.45;;;16.12;;
64085;SDS011;50333;47.436;21.390;2022-12-07T16:29:52;37.97;;;21.52;;
64085;SDS011;50333;47.436;21.390;2022-12-07T16:32:20;30.00;;;18.58;;
64085;SDS011;50333;47.436;21.390;2022-12-07T16:34:47;25.05;;;17.77;;
64085;SDS011;50333;47.436;21.390;2022-12-07T16:37:15;20.48;;;14.40;;
64085;SDS011;50333;47.436;21.390;2022-12-07T16:39:43;18.90;;;12.25;;
64085;SDS011;50333;47.436;21.390;2022-12-07T16:42:10;18.67;;;13.10;;
64085;SDS011;50333;47.436;21.390;2022-12-07T16:44:38;26.52;;;18.25;;
64085;SDS011;50333;47.436;21.390;2022-12-07T16:47:06;30.65;;;20.60;;
64085;SDS011;50333;47.436;21.390;2022-12-07T16:49:34;33.00;;;20.20;;
64085;SDS011;50333;47.436;21.390;2022-12-07T16:52:01;57.53;;;34.67;;
64085;SDS011;50333;47.436;21.390;2022-12-07T16:54:49;77.47;;;43.42;;
64085;SDS011;50333;47.436;21.390;2022-12-07T16:57:17;77.03;;;42.47;;
64085;SDS011;50333;47.436;21.390;2022-12-07T16:59:52;42.15;;;28.75;;
64085;SDS011;50333;47.436;21.390;2022-12-07T17:02:20;28.45;;;20.95;;
64085;SDS011;50333;47.436;21.390;2022-12-07T17:04:47;35.03;;;25.65;;